createdAt,value
2022-07-25T00:00:22.839Z,26.17
2022-07-25T00:02:51.262Z,26.21
2022-07-25T00:05:19.807Z,26.26
2022-07-25T00:07:47.882Z,26.26
2022-07-25T00:10:17.289Z,26.29
2022-07-25T00:12:45.422Z,26.27
2022-07-25T00:15:14.040Z,26.28
2022-07-25T00:17:42.273Z,26.25
2022-07-25T00:20:10.930Z,26.10
2022-07-25T00:22:38.880Z,25.94
2022-07-25T00:25:07.741Z,25.94
2022-07-25T00:27:37.106Z,25.60
2022-07-25T00:30:06.567Z,25.25
2022-07-25T00:32:34.523Z,25.28
2022-07-25T00:35:02.519Z,25.33
2022-07-25T00:37:30.529Z,25.48
2022-07-25T00:39:58.616Z,25.58
2022-07-25T00:42:26.560Z,25.62
2022-07-25T00:44:56.252Z,25.65
2022-07-25T00:47:24.312Z,25.69
2022-07-25T00:49:52.333Z,25.71
2022-07-25T00:52:20.829Z,25.76
2022-07-25T00:54:48.948Z,25.74
2022-07-25T00:57:17.091Z,25.73
2022-07-25T00:59:45.066Z,25.71
2022-07-25T01:02:14.470Z,25.67
2022-07-25T01:04:42.570Z,25.66
2022-07-25T01:07:10.589Z,25.63
2022-07-25T01:09:39.055Z,25.63
2022-07-25T01:12:07.304Z,25.62
2022-07-25T01:14:39.668Z,25.56
2022-07-25T01:17:07.636Z,25.57
2022-07-25T01:19:37.178Z,25.59
2022-07-25T01:22:06.679Z,25.59
2022-07-25T01:24:35.290Z,25.58
2022-07-25T01:27:03.408Z,25.52
2022-07-25T01:29:31.371Z,25.47
2022-07-25T01:31:59.519Z,25.45
2022-07-25T01:34:27.466Z,25.42
2022-07-25T01:36:55.465Z,25.41
2022-07-25T01:39:24.808Z,25.35
2022-07-25T01:41:52.799Z,25.29
2022-07-25T01:44:20.778Z,25.22
2022-07-25T01:46:48.807Z,25.21
2022-07-25T01:49:16.970Z,25.18
2022-07-25T01:51:45.075Z,25.20
2022-07-25T01:54:13.087Z,25.13
2022-07-25T01:56:48.290Z,25.09
2022-07-25T01:59:16.792Z,25.09
2022-07-25T02:01:44.985Z,25.10
2022-07-25T02:04:13.287Z,25.10
2022-07-25T02:06:41.871Z,25.10
2022-07-25T02:09:10.726Z,25.10
2022-07-25T02:11:38.740Z,25.14
2022-07-25T02:14:08.749Z,25.11
2022-07-25T02:16:36.901Z,25.09
2022-07-25T02:19:05.454Z,25.14
2022-07-25T02:21:33.495Z,25.15
2022-07-25T02:24:01.536Z,25.09
2022-07-25T02:26:29.567Z,25.10
2022-07-25T02:28:57.558Z,25.12
2022-07-25T02:31:27.002Z,25.08
2022-07-25T02:33:55.040Z,25.08
2022-07-25T02:36:23.381Z,25.06
2022-07-25T02:38:52.459Z,25.06
2022-07-25T02:41:20.443Z,25.04
2022-07-25T02:43:48.428Z,25.01
2022-07-25T02:46:16.854Z,25.01
2022-07-25T02:48:46.503Z,25.01
2022-07-25T02:51:14.623Z,24.96
2022-07-25T02:53:58.859Z,24.93
2022-07-25T02:56:30.061Z,24.90
2022-07-25T02:58:59.917Z,24.90
2022-07-25T03:01:28.324Z,24.86
2022-07-25T03:03:57.849Z,24.81
2022-07-25T03:06:25.866Z,24.82
2022-07-25T03:08:54.030Z,24.80
2022-07-25T03:11:22.271Z,24.75
2022-07-25T03:13:50.342Z,24.75
2022-07-25T03:16:18.403Z,24.67
2022-07-25T03:18:46.962Z,24.65
2022-07-25T03:21:16.325Z,24.60
2022-07-25T03:23:47.892Z,24.61
2022-07-25T03:26:18.468Z,24.61
2022-07-25T03:28:46.449Z,24.62
2022-07-25T03:31:14.408Z,24.64
2022-07-25T03:33:42.406Z,24.65
2022-07-25T03:36:10.681Z,24.63
2022-07-25T03:38:40.389Z,24.60
2022-07-25T03:41:08.361Z,24.61
2022-07-25T03:43:36.494Z,24.61
2022-07-25T03:46:04.967Z,24.64
2022-07-25T03:48:33.047Z,24.60
2022-07-25T03:51:06.459Z,24.51
2022-07-25T03:53:55.115Z,24.13
2022-07-25T03:56:24.471Z,24.17
2022-07-25T03:58:52.529Z,24.32
2022-07-25T04:01:20.864Z,24.35
2022-07-25T04:03:50.189Z,24.16
2022-07-25T04:06:18.707Z,24.14
2022-07-25T04:08:46.885Z,24.16
2022-07-25T04:11:16.228Z,24.16
2022-07-25T04:13:45.741Z,24.13
2022-07-25T04:16:18.432Z,24.17
2022-07-25T04:18:51.673Z,24.13
2022-07-25T04:21:19.850Z,24.12
2022-07-25T04:23:47.910Z,24.06
2022-07-25T04:26:16.458Z,24.04
2022-07-25T04:28:46.010Z,24.08
2022-07-25T04:31:14.057Z,24.15
2022-07-25T04:33:42.617Z,24.25
2022-07-25T04:36:11.249Z,24.33
2022-07-25T04:38:39.235Z,24.39
2022-07-25T04:41:07.601Z,24.43
2022-07-25T04:43:35.617Z,24.47
2022-07-25T04:46:05.159Z,24.46
2022-07-25T04:48:33.378Z,24.52
2022-07-25T04:51:01.656Z,24.61
2022-07-25T04:53:29.785Z,24.65
2022-07-25T04:55:57.927Z,24.70
2022-07-25T04:58:26.000Z,24.75
2022-07-25T05:00:53.996Z,24.72
2022-07-25T05:03:23.343Z,24.64
2022-07-25T05:05:51.489Z,24.65
2022-07-25T05:08:19.533Z,24.67
2022-07-25T05:10:47.539Z,24.68
2022-07-25T05:13:15.583Z,24.66
2022-07-25T05:15:44.330Z,24.68
2022-07-25T05:18:12.302Z,24.68
2022-07-25T05:20:41.811Z,24.73
2022-07-25T05:23:09.853Z,24.67
2022-07-25T05:25:37.885Z,24.43
2022-07-25T05:28:06.338Z,24.43
2022-07-25T05:30:39.631Z,24.54
2022-07-25T05:33:08.077Z,24.51
2022-07-25T05:35:36.110Z,24.50
2022-07-25T05:38:06.589Z,24.54
2022-07-25T05:40:34.754Z,24.58
2022-07-25T05:43:03.651Z,24.67
2022-07-25T05:45:32.053Z,24.68
2022-07-25T05:48:00.007Z,24.65
2022-07-25T05:50:28.068Z,24.68
2022-07-25T05:52:56.025Z,24.48
2022-07-25T05:55:25.370Z,24.35
2022-07-25T05:57:53.388Z,24.33
2022-07-25T06:00:21.407Z,24.45
2022-07-25T06:02:49.663Z,24.66
2022-07-25T06:05:17.867Z,24.87
2022-07-25T06:07:45.914Z,24.91
2022-07-25T06:10:13.953Z,24.91
2022-07-25T06:12:43.310Z,25.00
2022-07-25T06:15:12.650Z,25.01
2022-07-25T06:17:50.902Z,25.02
2022-07-25T06:20:18.913Z,25.09
2022-07-25T06:22:46.891Z,24.71
2022-07-25T06:25:15.105Z,24.53
2022-07-25T06:27:45.050Z,24.63
2022-07-25T06:30:19.739Z,24.69
2022-07-25T06:32:48.852Z,24.88
2022-07-25T06:35:16.910Z,24.98
2022-07-25T06:37:45.018Z,25.18
2022-07-25T06:40:13.417Z,25.34
2022-07-25T06:42:42.885Z,25.50
2022-07-25T06:45:14.565Z,25.64
2022-07-25T06:47:43.790Z,25.65
2022-07-25T06:50:14.218Z,25.77
2022-07-25T06:52:43.186Z,25.91
2022-07-25T06:55:12.734Z,25.98
2022-07-25T06:57:41.154Z,25.99
2022-07-25T07:00:14.459Z,26.04
2022-07-25T07:02:53.538Z,25.71
2022-07-25T07:05:22.142Z,25.66
2022-07-25T07:07:50.146Z,25.79
2022-07-25T07:10:19.043Z,25.74
2022-07-25T07:12:47.393Z,25.77
2022-07-25T07:15:17.602Z,25.84
2022-07-25T07:17:45.571Z,25.93
2022-07-25T07:20:13.835Z,26.25
2022-07-25T07:22:46.250Z,26.60
2022-07-25T07:25:16.402Z,26.74
2022-07-25T07:27:46.037Z,26.79
2022-07-25T07:30:16.837Z,26.81
2022-07-25T07:32:49.047Z,26.84
2022-07-25T07:35:19.142Z,26.91
2022-07-25T07:37:47.693Z,26.79
2022-07-25T07:40:18.158Z,26.77
2022-07-25T07:42:47.721Z,26.81
2022-07-25T07:45:17.284Z,27.04
2022-07-25T07:47:48.018Z,27.17
2022-07-25T07:50:18.632Z,27.15
2022-07-25T07:52:47.558Z,27.19
2022-07-25T07:55:33.674Z,27.44
2022-07-25T07:58:02.493Z,27.63
2022-07-25T08:00:31.547Z,27.65
2022-07-25T08:03:00.455Z,27.69
2022-07-25T08:05:32.631Z,27.69
2022-07-25T08:08:01.904Z,27.69
2022-07-25T08:10:31.643Z,27.70
2022-07-25T08:13:00.376Z,27.79
2022-07-25T08:15:28.426Z,27.84
2022-07-25T08:17:56.572Z,27.86
2022-07-25T08:20:39.863Z,27.99
2022-07-25T08:23:11.047Z,28.11
2022-07-25T08:25:39.375Z,28.25
2022-07-25T08:28:07.561Z,28.22
2022-07-25T08:30:36.838Z,28.25
2022-07-25T08:33:06.808Z,28.23
2022-07-25T08:35:35.948Z,28.40
2022-07-25T08:38:05.716Z,28.59
2022-07-25T08:40:35.760Z,28.71
2022-07-25T08:43:04.440Z,28.89
2022-07-25T08:45:34.241Z,28.93
2022-07-25T08:48:02.294Z,28.89
2022-07-25T08:50:31.346Z,28.98
2022-07-25T08:53:30.250Z,29.18
2022-07-25T08:55:49.431Z,29.37
2022-07-25T08:58:18.914Z,29.44
2022-07-25T09:00:47.864Z,29.31
2022-07-25T09:03:16.041Z,29.48
2022-07-25T09:05:45.331Z,29.60
2022-07-25T09:08:14.623Z,29.62
2022-07-25T09:10:50.294Z,29.64
2022-07-25T09:13:19.279Z,29.67
2022-07-25T09:15:49.527Z,29.69
2022-07-25T09:18:19.980Z,29.86
2022-07-25T09:20:50.937Z,30.06
2022-07-25T09:23:29.734Z,30.16
2022-07-25T09:26:05.300Z,30.13
2022-07-25T09:28:40.442Z,30.14
2022-07-25T09:31:09.840Z,30.20
2022-07-25T09:33:47.835Z,30.21
2022-07-25T09:36:16.206Z,30.28
2022-07-25T09:38:53.017Z,30.37
2022-07-25T09:41:23.123Z,30.40
2022-07-25T09:43:51.124Z,30.43
2022-07-25T09:46:19.172Z,30.50
2022-07-25T09:48:57.747Z,30.54
2022-07-25T09:51:26.428Z,30.55
2022-07-25T09:53:54.427Z,30.47
2022-07-25T09:56:23.930Z,30.57
2022-07-25T09:58:52.888Z,30.72
2022-07-25T10:01:26.551Z,30.82
2022-07-25T10:04:16.477Z,30.78
2022-07-25T10:06:51.588Z,30.72
2022-07-25T10:09:19.750Z,30.93
2022-07-25T10:12:09.652Z,31.18
2022-07-25T10:14:39.163Z,31.31
2022-07-25T10:17:07.905Z,31.40
2022-07-25T10:19:49.241Z,31.58
2022-07-25T10:22:34.425Z,31.70
2022-07-25T10:25:13.761Z,31.75
2022-07-25T10:27:48.786Z,31.82
2022-07-25T10:30:23.963Z,31.77
2022-07-25T10:32:56.769Z,31.91
2022-07-25T10:35:25.844Z,32.00
2022-07-25T10:37:55.052Z,32.10
2022-07-25T10:40:31.230Z,32.12
2022-07-25T10:43:07.933Z,32.11
2022-07-25T10:45:41.190Z,32.24
2022-07-25T10:48:11.658Z,32.45
2022-07-25T10:50:56.566Z,32.38
2022-07-25T10:53:34.378Z,32.29
2022-07-25T10:56:08.211Z,32.20
2022-07-25T10:58:49.017Z,32.15
2022-07-25T11:01:23.000Z,32.14
2022-07-25T11:03:51.978Z,32.19
2022-07-25T11:06:31.823Z,32.16
2022-07-25T11:09:01.226Z,32.40
2022-07-25T11:11:38.203Z,32.53
2022-07-25T11:14:16.454Z,32.62
2022-07-25T11:16:45.074Z,32.66
2022-07-25T11:19:24.077Z,32.73
2022-07-25T11:21:54.691Z,32.81
2022-07-25T11:24:23.580Z,32.89
2022-07-25T11:26:53.296Z,32.72
2022-07-25T11:29:26.917Z,32.74
2022-07-25T11:31:57.114Z,32.88
2022-07-25T11:34:27.833Z,33.01
2022-07-25T11:36:58.802Z,32.87
2022-07-25T11:39:28.987Z,32.71
2022-07-25T11:42:01.768Z,32.67
2022-07-25T11:44:36.317Z,32.89
2022-07-25T11:47:06.018Z,33.05
2022-07-25T11:49:45.517Z,33.07
2022-07-25T11:52:21.523Z,33.10
2022-07-25T11:54:58.097Z,33.19
2022-07-25T11:57:27.478Z,33.30
2022-07-25T11:59:57.768Z,33.41
2022-07-25T12:02:27.339Z,33.31
2022-07-25T12:04:57.660Z,33.22
2022-07-25T12:07:40.005Z,33.05
2022-07-25T12:10:10.476Z,32.90
2022-07-25T12:12:52.033Z,32.77
2022-07-25T12:15:23.665Z,32.68
2022-07-25T12:17:53.240Z,32.64
2022-07-25T12:20:23.487Z,32.62
2022-07-25T12:22:53.194Z,32.51
2022-07-25T12:25:21.725Z,32.38
2022-07-25T12:27:50.042Z,32.30
2022-07-25T12:30:18.354Z,32.23
2022-07-25T12:32:47.792Z,32.22
2022-07-25T12:35:15.873Z,32.18
2022-07-25T12:37:44.633Z,32.17
2022-07-25T12:40:14.531Z,32.12
2022-07-25T12:42:42.787Z,32.07
2022-07-25T12:45:12.060Z,32.04
2022-07-25T12:47:40.228Z,31.99
2022-07-25T12:50:10.561Z,32.02
2022-07-25T12:52:39.222Z,32.06
2022-07-25T12:55:08.633Z,32.10
2022-07-25T12:57:37.381Z,32.11
2022-07-25T13:00:06.162Z,32.08
2022-07-25T13:02:34.297Z,32.07
2022-07-25T13:05:02.287Z,32.12
2022-07-25T13:07:31.940Z,32.11
2022-07-25T13:10:00.842Z,32.10
2022-07-25T13:12:29.065Z,32.06
2022-07-25T13:14:57.245Z,32.00
2022-07-25T13:17:27.663Z,31.91
2022-07-25T13:19:56.909Z,31.77
2022-07-25T13:22:25.219Z,31.73
2022-07-25T13:24:55.277Z,31.73
2022-07-25T13:27:24.581Z,31.68
2022-07-25T13:29:54.856Z,31.67
2022-07-25T13:32:23.967Z,31.64
2022-07-25T13:34:52.022Z,31.63
2022-07-25T13:37:20.020Z,31.66
2022-07-25T13:39:47.984Z,31.66
2022-07-25T13:42:17.624Z,31.70
2022-07-25T13:44:45.553Z,31.69
2022-07-25T13:47:13.627Z,31.71
2022-07-25T13:49:41.782Z,31.73
2022-07-25T13:52:09.831Z,31.76
2022-07-25T13:54:37.919Z,31.73
2022-07-25T13:57:06.043Z,31.69
2022-07-25T13:59:35.486Z,31.68
2022-07-25T14:02:03.591Z,31.66
2022-07-25T14:04:32.041Z,31.61
2022-07-25T14:07:01.769Z,31.59
2022-07-25T14:09:29.761Z,31.55
2022-07-25T14:11:58.097Z,31.51
2022-07-25T14:14:26.161Z,31.49
2022-07-25T14:16:55.714Z,31.46
2022-07-25T14:19:24.199Z,31.40
2022-07-25T14:21:52.267Z,31.48
2022-07-25T14:24:20.238Z,31.50
2022-07-25T14:26:49.187Z,31.48
2022-07-25T14:29:17.170Z,31.45
2022-07-25T14:31:45.301Z,31.42
2022-07-25T14:34:15.669Z,31.39
2022-07-25T14:36:44.828Z,31.34
2022-07-25T14:39:12.853Z,31.35
2022-07-25T14:41:40.827Z,31.36
2022-07-25T14:44:09.557Z,31.35
2022-07-25T14:46:37.692Z,31.36
2022-07-25T14:49:06.101Z,31.30
2022-07-25T14:51:35.656Z,31.23
2022-07-25T14:54:03.678Z,31.22
2022-07-25T14:56:31.692Z,31.25
2022-07-25T14:58:59.995Z,31.29
2022-07-25T15:01:28.035Z,31.28
2022-07-25T15:03:57.177Z,31.25
2022-07-25T15:06:29.000Z,31.28
2022-07-25T15:08:59.003Z,31.29
2022-07-25T15:11:27.065Z,31.34
2022-07-25T15:13:55.107Z,31.37
2022-07-25T15:16:23.382Z,31.39
2022-07-25T15:19:15.371Z,31.38
2022-07-25T15:21:39.978Z,31.41
2022-07-25T15:24:09.544Z,31.46
2022-07-25T15:26:38.060Z,31.50
2022-07-25T15:29:09.788Z,31.61
2022-07-25T15:31:38.537Z,31.77
2022-07-25T15:34:06.572Z,31.94
2022-07-25T15:36:34.608Z,32.11
2022-07-25T15:39:02.851Z,32.40
2022-07-25T15:41:33.028Z,32.74
2022-07-25T15:44:01.047Z,33.19
2022-07-25T15:46:29.271Z,33.10
2022-07-25T15:48:58.577Z,32.74
2022-07-25T15:51:26.676Z,32.44
2022-07-25T15:53:54.673Z,32.35
2022-07-25T15:56:22.706Z,32.54
2022-07-25T15:58:52.172Z,32.92
2022-07-25T16:01:20.341Z,33.15
2022-07-25T16:03:48.530Z,33.15
2022-07-25T16:06:20.626Z,33.18
2022-07-25T16:08:50.170Z,33.13
2022-07-25T16:11:24.896Z,33.08
2022-07-25T16:13:54.780Z,32.93
2022-07-25T16:16:23.016Z,32.71
2022-07-25T16:18:51.199Z,32.55
2022-07-25T16:21:19.299Z,32.44
2022-07-25T16:23:47.710Z,32.29
2022-07-25T16:26:15.810Z,32.14
2022-07-25T16:28:45.275Z,32.13
2022-07-25T16:31:14.740Z,32.14
2022-07-25T16:33:42.817Z,32.24
2022-07-25T16:36:12.235Z,32.52
2022-07-25T16:38:40.549Z,32.62
2022-07-25T16:41:08.570Z,32.79
2022-07-25T16:43:36.550Z,32.89
2022-07-25T16:46:04.762Z,32.97
2022-07-25T16:48:34.709Z,32.88
2022-07-25T16:51:02.757Z,32.85
2022-07-25T16:53:32.679Z,32.93
2022-07-25T16:56:00.745Z,32.82
2022-07-25T16:58:28.907Z,32.79
2022-07-25T17:00:56.894Z,32.72
2022-07-25T17:03:24.974Z,32.70
2022-07-25T17:05:54.706Z,32.61
2022-07-25T17:08:22.700Z,32.49
2022-07-25T17:10:50.761Z,32.41
2022-07-25T17:13:18.793Z,32.24
2022-07-25T17:15:46.924Z,32.07
2022-07-25T17:18:15.287Z,32.01
2022-07-25T17:20:43.507Z,31.96
2022-07-25T17:23:12.969Z,31.88
2022-07-25T17:25:41.176Z,31.80
2022-07-25T17:28:09.437Z,31.69
2022-07-25T17:30:37.445Z,31.57
2022-07-25T17:33:05.595Z,31.47
2022-07-25T17:35:33.923Z,31.42
2022-07-25T17:38:02.466Z,31.37
2022-07-25T17:40:31.891Z,31.26
2022-07-25T17:43:00.024Z,31.23
2022-07-25T17:45:28.002Z,31.20
2022-07-25T17:47:56.049Z,31.18
2022-07-25T17:50:29.152Z,31.16
2022-07-25T17:52:59.708Z,31.09
2022-07-25T17:55:28.740Z,31.01
2022-07-25T17:57:59.713Z,30.94
2022-07-25T18:00:28.505Z,30.92
2022-07-25T18:02:56.790Z,30.71
2022-07-25T18:05:25.139Z,30.42
2022-07-25T18:07:53.944Z,30.34
2022-07-25T18:10:22.840Z,30.42
2022-07-25T18:12:51.462Z,30.44
2022-07-25T18:15:20.896Z,30.42
2022-07-25T18:17:49.511Z,30.26
2022-07-25T18:20:17.933Z,30.01
2022-07-25T18:22:46.453Z,29.96
2022-07-25T18:25:16.233Z,29.92
2022-07-25T18:27:45.262Z,29.93
2022-07-25T18:30:14.942Z,29.84
2022-07-25T18:32:45.656Z,29.75
2022-07-25T18:35:14.400Z,29.79
2022-07-25T18:37:43.639Z,29.88
2022-07-25T18:40:12.448Z,29.90
2022-07-25T18:42:40.598Z,29.89
2022-07-25T18:45:09.895Z,29.85
2022-07-25T18:47:38.414Z,29.77
2022-07-25T18:50:08.804Z,29.86
2022-07-25T18:52:37.498Z,29.83
2022-07-25T18:55:07.297Z,29.50
2022-07-25T18:57:35.696Z,29.32
2022-07-25T19:00:04.317Z,29.24
2022-07-25T19:02:32.275Z,29.05
2022-07-25T19:05:00.416Z,28.96
2022-07-25T19:07:31.328Z,28.96
2022-07-25T19:09:59.499Z,28.89
2022-07-25T19:12:27.523Z,28.81
2022-07-25T19:14:56.423Z,28.75
2022-07-25T19:17:24.727Z,28.81
2022-07-25T19:19:53.259Z,28.68
2022-07-25T19:22:21.254Z,28.37
2022-07-25T19:24:50.609Z,28.37
2022-07-25T19:27:19.413Z,28.23
2022-07-25T19:29:47.883Z,28.28
2022-07-25T19:32:16.262Z,28.25
2022-07-25T19:34:46.567Z,28.24
2022-07-25T19:37:14.554Z,28.21
2022-07-25T19:39:42.514Z,28.22
2022-07-25T19:42:12.330Z,28.12
2022-07-25T19:44:40.679Z,28.09
2022-07-25T19:47:11.881Z,28.15
2022-07-25T19:49:40.747Z,28.18
2022-07-25T19:52:09.416Z,28.29
2022-07-25T19:54:37.572Z,28.28
2022-07-25T19:57:06.165Z,28.29
2022-07-25T19:59:35.661Z,28.26
2022-07-25T20:02:04.332Z,28.21
2022-07-25T20:04:32.383Z,28.30
2022-07-25T20:07:02.267Z,28.37
2022-07-25T20:09:30.521Z,28.20
2022-07-25T20:11:58.818Z,28.24
2022-07-25T20:14:26.859Z,28.03
2022-07-25T20:16:56.243Z,28.07
2022-07-25T20:19:24.807Z,28.11
2022-07-25T20:21:52.805Z,28.09
2022-07-25T20:24:21.871Z,27.97
2022-07-25T20:26:50.272Z,27.76
2022-07-25T20:29:18.403Z,27.66
2022-07-25T20:31:46.703Z,27.37
2022-07-25T20:34:16.961Z,27.28
2022-07-25T20:36:47.800Z,27.27
2022-07-25T20:39:15.954Z,27.00
2022-07-25T20:41:44.669Z,27.02
2022-07-25T20:44:12.818Z,27.17
2022-07-25T20:46:40.932Z,27.00
2022-07-25T20:49:09.808Z,27.09
2022-07-25T20:51:40.900Z,27.26
2022-07-25T20:54:09.487Z,27.33
2022-07-25T20:56:37.476Z,27.06
2022-07-25T20:59:05.704Z,27.00
2022-07-25T21:01:34.109Z,26.90
2022-07-25T21:04:07.021Z,26.74
2022-07-25T21:06:36.917Z,26.70
2022-07-25T21:09:06.936Z,26.69
2022-07-25T21:11:36.111Z,26.52
2022-07-25T21:14:04.825Z,26.64
2022-07-25T21:16:34.029Z,26.68
2022-07-25T21:19:02.076Z,26.60
2022-07-25T21:21:30.172Z,26.57
2022-07-25T21:23:58.153Z,26.58
2022-07-25T21:26:27.938Z,26.26
2022-07-25T21:28:55.945Z,26.23
2022-07-25T21:31:24.104Z,26.40
2022-07-25T21:33:52.191Z,26.50
2022-07-25T21:36:20.465Z,26.49
2022-07-25T21:38:48.703Z,26.57
2022-07-25T21:41:16.655Z,26.59
2022-07-25T21:43:46.618Z,26.59
2022-07-25T21:46:14.750Z,26.44
2022-07-25T21:49:01.086Z,26.41
2022-07-25T21:51:40.399Z,26.27
2022-07-25T21:54:09.327Z,26.15
2022-07-25T21:56:37.612Z,26.16
2022-07-25T21:59:07.379Z,26.00
2022-07-25T22:01:35.762Z,25.74
2022-07-25T22:04:04.144Z,25.64
2022-07-25T22:06:32.250Z,25.77
2022-07-25T22:09:00.279Z,25.51
2022-07-25T22:11:43.017Z,25.46
2022-07-25T22:14:16.948Z,25.51
2022-07-25T22:16:45.065Z,25.73
2022-07-25T22:19:13.158Z,25.67
2022-07-25T22:21:41.643Z,25.73
2022-07-25T22:24:10.595Z,25.83
2022-07-25T22:26:38.733Z,25.87
2022-07-25T22:29:07.080Z,25.83
2022-07-25T22:31:38.735Z,25.81
2022-07-25T22:34:07.147Z,25.58
2022-07-25T22:36:35.254Z,25.71
2022-07-25T22:39:03.331Z,25.68
2022-07-25T22:41:31.296Z,25.71
2022-07-25T22:44:00.093Z,25.66
2022-07-25T22:46:29.103Z,25.59
2022-07-25T22:48:59.723Z,25.62
2022-07-25T22:51:29.056Z,25.60
2022-07-25T22:53:57.651Z,25.50
2022-07-25T22:56:26.189Z,25.45
2022-07-25T22:58:55.076Z,25.52
2022-07-25T23:01:23.844Z,25.50
2022-07-25T23:03:51.946Z,25.65
2022-07-25T23:06:22.262Z,25.53
2022-07-25T23:08:51.101Z,25.57
2022-07-25T23:11:19.338Z,25.65
2022-07-25T23:13:47.380Z,25.64
2022-07-25T23:16:15.548Z,25.71
2022-07-25T23:18:43.714Z,25.70
2022-07-25T23:21:12.295Z,25.68
2022-07-25T23:23:41.615Z,25.83
2022-07-25T23:26:09.603Z,25.81
2022-07-25T23:28:37.735Z,25.41
2022-07-25T23:31:06.057Z,25.06
2022-07-25T23:33:34.170Z,25.16
2022-07-25T23:36:02.347Z,25.21
2022-07-25T23:38:30.457Z,25.23
2022-07-25T23:40:59.870Z,25.36
2022-07-25T23:43:57.553Z,25.48
2022-07-25T23:46:15.792Z,25.34
2022-07-25T23:48:46.248Z,25.03
2022-07-25T23:51:16.570Z,24.83
2022-07-25T23:53:44.642Z,24.74
2022-07-25T23:56:20.248Z,24.76
2022-07-25T23:58:50.080Z,24.50
